Time;durP1;ratioP1;P1;durP2;ratioP2;P2;SDS_P1;SDS_P2;PMS_P1;PMS_P2;Temp;Humidity;BMP_temperature;BMP_pressure;BME280_temperature;BME280_humidity;BME280_pressure;Samples;Min_cycle;Max_cycle;Signal;HPM_P1;HPM_P2
2022/07/31 00:01:12;;;;;;;;;;;;;;;25.08;41.26;100720.38;4976774;28;6918;-76
2022/07/31 00:03:38;;;;;;;;;;;;;;;25.04;41.84;100721.28;4980792;28;6816;-77
2022/07/31 00:06:04;;;;;;;;;;;;;;;25.01;41.83;100721.28;5013734;28;6815;-77
2022/07/31 00:08:30;;;;;;;;;;;;;;;24.95;41.52;100722.22;4975994;28;7769;-77
2022/07/31 00:10:56;;;;;;;;;;;;;;;24.89;41.49;100717.03;5018311;28;7144;-77
2022/07/31 00:13:22;;;;;;;;;;;;;;;24.86;42.22;100718.81;5014930;28;6776;-77
2022/07/31 00:15:48;;;;;;;;;;;;;;;24.79;41.73;100710.97;5009934;28;7381;-76
2022/07/31 00:18:13;;;;;;;;;;;;;;;24.77;42.03;100706.56;4981080;28;7221;-76
2022/07/31 00:20:39;;;;;;;;;;;;;;;24.74;42.61;100699.63;5016068;28;7379;-77
2022/07/31 00:23:05;;;;;;;;;;;;;;;24.72;42.46;100696.13;4984161;28;6955;-77
2022/07/31 00:25:32;;;;;;;;;;;;;;;24.68;42.58;100694.41;5012274;28;6788;-77
2022/07/31 00:27:58;;;;;;;;;;;;;;;24.63;42.28;100689.19;4977212;28;6855;-77
2022/07/31 00:30:24;;;;;;;;;;;;;;;24.58;42.72;100679.63;5009899;28;6791;-77
2022/07/31 00:32:49;;;;;;;;;;;;;;;24.54;42.87;100684.88;5013444;28;7238;-77
2022/07/31 00:35:15;;;;;;;;;;;;;;;24.50;42.42;100679.66;5016278;28;6968;-77
2022/07/31 00:37:43;;;;;;;;;;;;;;;24.48;42.63;100684.91;5018808;28;7210;-77
2022/07/31 00:40:12;;;;;;;;;;;;;;;24.43;42.77;100685.81;4974411;28;8045;-77
2022/07/31 00:42:37;;;;;;;;;;;;;;;24.39;42.67;100692.81;5032507;28;7013;-77
2022/07/31 00:45:04;;;;;;;;;;;;;;;24.35;42.18;100691.94;5020884;28;7024;-77
2022/07/31 00:47:30;;;;;;;;;;;;;;;24.33;42.34;100688.47;4985168;28;6840;-77
2022/07/31 00:49:56;;;;;;;;;;;;;;;24.31;42.67;100684.13;4995935;28;7279;-76
2022/07/31 00:52:21;;;;;;;;;;;;;;;24.29;42.54;100683.25;5017737;28;7832;-77
2022/07/31 00:54:47;;;;;;;;;;;;;;;24.28;42.17;100677.13;4981837;28;6791;-77
2022/07/31 00:57:14;;;;;;;;;;;;;;;24.27;42.17;100684.13;5015299;28;6776;-76
2022/07/31 00:59:40;;;;;;;;;;;;;;;24.26;41.74;100685.03;5002341;28;6987;-77
2022/07/31 01:02:07;;;;;;;;;;;;;;;24.27;41.71;100678.03;4981744;28;7312;-76
2022/07/31 01:04:33;;;;;;;;;;;;;;;24.28;41.67;100677.13;4979717;28;6824;-77
2022/07/31 01:06:59;;;;;;;;;;;;;;;24.29;41.80;100678.91;5003678;28;7149;-76
2022/07/31 01:09:26;;;;;;;;;;;;;;;24.32;41.37;100668.41;4988580;28;7041;-76
2022/07/31 01:12:11;;;;;;;;;;;;;;;24.35;41.45;100667.53;4988507;28;7000;-77
2022/07/31 01:14:51;;;;;;;;;;;;;;;24.39;41.08;100669.25;4982902;28;7438;-77
2022/07/31 01:17:21;;;;;;;;;;;;;;;24.40;41.35;100670.97;4987451;28;7102;-77
2022/07/31 01:19:49;;;;;;;;;;;;;;;24.45;41.26;100679.69;5015359;28;8003;-76
2022/07/31 01:23:05;;;;;;;;;;;;;;;24.50;40.67;100687.53;5015115;28;7205;-77
2022/07/31 01:26:01;;;;;;;;;;;;;;;24.53;41.13;100691.00;4984906;28;6837;-77
2022/07/31 01:29:12;;;;;;;;;;;;;;;24.55;41.15;100689.25;4984674;28;7181;-76
2022/07/31 01:31:48;;;;;;;;;;;;;;;24.60;40.72;100689.22;4982949;28;7208;-77
2022/07/31 01:34:38;;;;;;;;;;;;;;;24.65;40.49;100691.81;5015486;28;6800;-76
2022/07/31 01:37:26;;;;;;;;;;;;;;;24.69;40.77;100683.94;4979152;28;7824;-77
2022/07/31 01:40:23;;;;;;;;;;;;;;;24.72;40.18;100687.41;4972905;28;7029;-77
2022/07/31 01:43:06;;;;;;;;;;;;;;;24.75;40.53;100677.78;5005087;28;6812;-77
2022/07/31 01:45:34;;;;;;;;;;;;;;;24.79;40.54;100676.03;4984828;28;6950;-77
2022/07/31 01:48:02;;;;;;;;;;;;;;;24.81;40.36;100675.13;4996027;28;6919;-77
2022/07/31 01:50:31;;;;;;;;;;;;;;;24.85;40.35;100683.84;5017870;28;7430;-77
2022/07/31 01:52:59;;;;;;;;;;;;;;;24.88;40.03;100681.22;5015342;28;7012;-77
2022/07/31 01:55:30;;;;;;;;;;;;;;;24.90;40.15;100679.44;5014280;28;7173;-77
2022/07/31 01:57:57;;;;;;;;;;;;;;;24.93;40.59;100681.19;4985993;28;7189;-77
2022/07/31 02:00:23;;;;;;;;;;;;;;;24.94;39.89;100672.44;5015425;28;7252;-77
2022/07/31 02:02:51;;;;;;;;;;;;;;;24.95;40.58;100675.03;5019871;28;6828;-77
2022/07/31 02:05:20;;;;;;;;;;;;;;;24.98;40.69;100684.63;4978437;28;6792;-77
2022/07/31 02:07:48;;;;;;;;;;;;;;;24.99;40.14;100683.75;5015570;28;6804;-77
2022/07/31 02:10:17;;;;;;;;;;;;;;;25.02;40.59;100673.25;5029061;28;7142;-77
2022/07/31 02:12:44;;;;;;;;;;;;;;;25.03;40.10;100669.75;4995134;28;7141;-77
2022/07/31 02:15:15;;;;;;;;;;;;;;;25.05;40.77;100665.34;5031473;28;7138;-77
2022/07/31 02:17:44;;;;;;;;;;;;;;;25.06;40.30;100667.09;4986420;28;6962;-77
2022/07/31 02:20:12;;;;;;;;;;;;;;;25.07;40.42;100667.97;4997129;28;7080;-77
2022/07/31 02:22:39;;;;;;;;;;;;;;;25.06;40.26;100664.47;4977447;28;8066;-77
2022/07/31 02:25:07;;;;;;;;;;;;;;;25.08;40.76;100669.72;5029457;28;7015;-78
2022/07/31 02:27:35;;;;;;;;;;;;;;;25.07;40.88;100671.44;5016585;28;6923;-78
2022/07/31 02:30:03;;;;;;;;;;;;;;;25.08;40.61;100675.81;5000620;28;8040;-78
2022/07/31 02:32:32;;;;;;;;;;;;;;;25.08;40.43;100670.56;5017008;28;8186;-77
2022/07/31 02:35:00;;;;;;;;;;;;;;;25.07;40.33;100668.81;4977649;28;7370;-76
2022/07/31 02:37:28;;;;;;;;;;;;;;;25.07;40.97;100674.06;5002986;28;7225;-77
2022/07/31 02:39:55;;;;;;;;;;;;;;;25.06;41.14;100669.72;5034988;28;8527;-77
2022/07/31 02:42:22;;;;;;;;;;;;;;;25.04;41.19;100665.34;5018684;28;6987;-77
2022/07/31 02:44:49;;;;;;;;;;;;;;;25.02;41.08;100664.50;4977844;28;7895;-77
2022/07/31 02:47:16;;;;;;;;;;;;;;;24.98;40.72;100662.81;4995103;28;7018;-76
2022/07/31 02:49:44;;;;;;;;;;;;;;;24.95;41.24;100671.56;4996853;28;6990;-77
2022/07/31 02:52:11;;;;;;;;;;;;;;;24.92;41.10;100674.22;5029432;28;6992;-77
2022/07/31 02:54:39;;;;;;;;;;;;;;;24.89;41.16;100668.97;4986686;28;8255;-77
2022/07/31 02:57:06;;;;;;;;;;;;;;;24.86;41.52;100674.25;5014094;28;7785;-76
2022/07/31 02:59:36;;;;;;;;;;;;;;;24.85;41.07;100675.13;5015111;28;6807;-77
2022/07/31 03:02:02;;;;;;;;;;;;;;;24.82;41.26;100670.75;5009822;28;7222;-77
2022/07/31 03:04:28;;;;;;;;;;;;;;;24.81;41.46;100676.88;5013520;28;7337;-77
2022/07/31 03:06:54;;;;;;;;;;;;;;;24.78;41.46;100672.53;5002769;28;6962;-76
2022/07/31 03:09:20;;;;;;;;;;;;;;;24.75;41.31;100669.03;4996978;28;8489;-76
2022/07/31 03:11:46;;;;;;;;;;;;;;;24.72;41.97;100671.69;4985624;28;6776;-76
2022/07/31 03:14:12;;;;;;;;;;;;;;;24.69;41.92;100680.41;4984936;28;6788;-77
2022/07/31 03:16:45;;;;;;;;;;;;;;;24.65;41.98;100676.94;5018966;28;6963;-77
2022/07/31 03:19:12;;;;;;;;;;;;;;;24.63;41.72;100673.47;5029856;28;6975;-77
2022/07/31 03:21:38;;;;;;;;;;;;;;;24.61;41.97;100682.22;5016699;28;7170;-77
2022/07/31 03:24:05;;;;;;;;;;;;;;;24.59;42.33;100676.13;5013751;28;6975;-77
2022/07/31 03:26:31;;;;;;;;;;;;;;;24.58;42.22;100679.63;4982207;28;6995;-76
2022/07/31 03:28:59;;;;;;;;;;;;;;;24.54;42.81;100673.53;5030113;28;7403;-77
2022/07/31 03:31:25;;;;;;;;;;;;;;;24.50;42.52;100667.44;5012437;28;7859;-76
2022/07/31 03:33:50;;;;;;;;;;;;;;;24.48;42.66;100674.44;5030914;28;6962;-77
2022/07/31 03:36:16;;;;;;;;;;;;;;;24.46;42.69;100673.56;4981397;28;6772;-77
2022/07/31 03:38:42;;;;;;;;;;;;;;;24.42;43.12;100663.97;5001607;28;6963;-77
2022/07/31 03:41:08;;;;;;;;;;;;;;;24.40;43.04;100669.25;5015248;28;7194;-77
2022/07/31 03:43:35;;;;;;;;;;;;;;;24.39;42.53;100675.38;4981805;28;7201;-77
2022/07/31 03:46:02;;;;;;;;;;;;;;;24.35;43.09;100675.38;5032108;28;7040;-77
2022/07/31 03:48:29;;;;;;;;;;;;;;;24.31;43.25;100668.41;4978406;28;6867;-77
2022/07/31 03:50:55;;;;;;;;;;;;;;;24.28;43.45;100669.28;4983093;28;6917;-77
2022/07/31 03:53:23;;;;;;;;;;;;;;;24.25;43.71;100664.94;5014321;28;6968;-77
2022/07/31 03:55:50;;;;;;;;;;;;;;;24.23;43.40;100664.06;5014258;28;7081;-77
2022/07/31 03:58:21;;;;;;;;;;;;;;;24.20;43.94;100664.09;4984150;28;7180;-77
2022/07/31 04:00:47;;;;;;;;;;;;;;;24.17;44.02;100673.69;5012459;28;6952;-77
2022/07/31 04:03:13;;;;;;;;;;;;;;;24.15;43.77;100665.88;4983639;28;7888;-77
2022/07/31 04:05:41;;;;;;;;;;;;;;;24.12;43.90;100671.97;5010686;28;7187;-77
2022/07/31 04:08:08;;;;;;;;;;;;;;;24.10;43.98;100668.50;5001981;28;7195;-77
2022/07/31 04:10:36;;;;;;;;;;;;;;;24.10;44.29;100667.63;5013692;28;7154;-77
2022/07/31 04:13:03;;;;;;;;;;;;;;;24.08;44.54;100665.00;4985741;28;6792;-77
2022/07/31 04:15:29;;;;;;;;;;;;;;;24.06;44.73;100663.28;5018482;28;6864;-77
2022/07/31 04:17:55;;;;;;;;;;;;;;;24.06;44.18;100666.75;5017567;28;6950;-77
2022/07/31 04:20:20;;;;;;;;;;;;;;;24.06;44.74;100676.38;4985575;28;6981;-77
2022/07/31 04:22:47;;;;;;;;;;;;;;;24.05;45.29;100679.88;5015904;28;6953;-77
2022/07/31 04:25:14;;;;;;;;;;;;;;;24.06;44.80;100687.69;5014546;28;6962;-77
2022/07/31 04:27:40;;;;;;;;;;;;;;;24.07;44.83;100678.97;5017853;28;6851;-77
2022/07/31 04:30:07;;;;;;;;;;;;;;;24.07;44.79;100678.97;5016846;28;7071;-77
2022/07/31 04:32:35;;;;;;;;;;;;;;;24.09;44.59;100681.59;5015223;28;7228;-77
2022/07/31 04:35:01;;;;;;;;;;;;;;;24.07;45.30;100675.50;5021261;28;7219;-77
2022/07/31 04:37:27;;;;;;;;;;;;;;;24.05;45.09;100670.25;5014957;28;7382;-77
2022/07/31 04:39:53;;;;;;;;;;;;;;;24.03;44.97;100677.22;5003317;28;6983;-77
2022/07/31 04:42:19;;;;;;;;;;;;;;;24.02;45.77;100685.06;5035000;28;6964;-77
2022/07/31 04:44:44;;;;;;;;;;;;;;;23.98;45.67;100685.09;4985554;28;6783;-77
2022/07/31 04:47:10;;;;;;;;;;;;;;;23.96;45.71;100681.63;4989105;28;6788;-77
2022/07/31 04:49:36;;;;;;;;;;;;;;;23.96;45.99;100686.84;4982129;28;7035;-77
2022/07/31 04:52:02;;;;;;;;;;;;;;;23.94;46.15;100701.66;4981391;28;8049;-77
2022/07/31 04:54:28;;;;;;;;;;;;;;;23.92;46.41;100698.19;4987739;28;6848;-77
2022/07/31 04:56:54;;;;;;;;;;;;;;;23.91;46.56;100692.97;5017350;28;7040;-77
2022/07/31 04:59:22;;;;;;;;;;;;;;;23.89;46.63;100685.13;4996357;28;7337;-77
2022/07/31 05:01:49;;;;;;;;;;;;;;;23.90;46.76;100686.84;5013134;28;6959;-77
2022/07/31 05:04:16;;;;;;;;;;;;;;;23.92;46.98;100690.34;5018008;28;7469;-77
2022/07/31 05:06:46;;;;;;;;;;;;;;;23.93;46.91;100694.69;4989255;28;7988;-77
2022/07/31 05:09:15;;;;;;;;;;;;;;;23.95;47.02;100690.34;4986556;28;6957;-77
2022/07/31 05:11:42;;;;;;;;;;;;;;;24.00;46.76;100691.19;4965534;28;7067;-76
2022/07/31 05:14:11;;;;;;;;;;;;;;;24.03;46.64;100686.81;4988100;28;6860;-76
2022/07/31 05:16:37;;;;;;;;;;;;;;;24.06;46.23;100682.47;4988584;28;7212;-76
2022/07/31 05:19:04;;;;;;;;;;;;;;;24.12;46.34;100682.47;5018707;28;7639;-77
2022/07/31 05:21:30;;;;;;;;;;;;;;;24.17;46.66;100684.16;5017591;28;7273;-77
2022/07/31 05:23:58;;;;;;;;;;;;;;;24.22;46.65;100693.75;5018013;28;7050;-77
2022/07/31 05:26:26;;;;;;;;;;;;;;;24.28;46.58;100685.00;5018555;28;6975;-77
2022/07/31 05:28:54;;;;;;;;;;;;;;;24.32;46.26;100678.88;5032749;28;6993;-77
2022/07/31 05:31:20;;;;;;;;;;;;;;;24.36;46.31;100682.38;4983692;28;6972;-77
2022/07/31 05:33:48;;;;;;;;;;;;;;;24.37;46.37;100682.34;5016305;28;7140;-77
2022/07/31 05:36:15;;;;;;;;;;;;;;;24.39;46.62;100679.72;5021545;28;7162;-77
2022/07/31 05:38:42;;;;;;;;;;;;;;;24.39;47.46;100684.94;5017679;28;7268;-77
2022/07/31 05:41:08;;;;;;;;;;;;;;;24.37;47.03;100689.34;4984075;28;7216;-77
2022/07/31 05:43:35;;;;;;;;;;;;;;;24.37;47.19;100691.97;5013368;28;7237;-77
2022/07/31 05:46:02;;;;;;;;;;;;;;;24.36;47.23;100695.47;5014260;28;7002;-77
2022/07/31 05:48:28;;;;;;;;;;;;;;;24.35;47.66;100681.47;4987258;28;7020;-77
2022/07/31 05:50:53;;;;;;;;;;;;;;;24.38;47.72;100677.97;5017908;28;6780;-77
2022/07/31 05:53:19;;;;;;;;;;;;;;;24.38;47.93;100672.75;4985771;28;7194;-77
2022/07/31 05:55:48;;;;;;;;;;;;;;;24.43;48.00;100675.34;5014873;28;6788;-77
2022/07/31 05:58:15;;;;;;;;;;;;;;;24.46;48.06;100665.72;5013618;28;7021;-77
2022/07/31 06:00:42;;;;;;;;;;;;;;;24.48;48.18;100671.81;5018934;28;10058;-77
2022/07/31 06:03:09;;;;;;;;;;;;;;;24.48;47.94;100663.06;4980550;28;7264;-77
2022/07/31 06:05:35;;;;;;;;;;;;;;;24.49;47.58;100670.06;4981512;28;6804;-77
2022/07/31 06:08:01;;;;;;;;;;;;;;;24.49;47.83;100668.31;5010921;28;8397;-77
2022/07/31 06:10:27;;;;;;;;;;;;;;;24.48;48.04;100669.19;5014483;28;6992;-77
2022/07/31 06:12:53;;;;;;;;;;;;;;;24.48;47.80;100671.81;4982683;28;6976;-77
2022/07/31 06:15:20;;;;;;;;;;;;;;;24.45;47.68;100663.09;5032322;28;7297;-77
2022/07/31 06:17:45;;;;;;;;;;;;;;;24.45;48.55;100673.56;4987204;28;7101;-77
2022/07/31 06:20:13;;;;;;;;;;;;;;;24.45;47.84;100666.59;4996222;28;7151;-76
2022/07/31 06:22:42;;;;;;;;;;;;;;;24.44;48.23;100659.63;4978079;28;6793;-76
2022/07/31 06:25:09;;;;;;;;;;;;;;;24.44;48.96;100659.63;4974694;28;7143;-77
2022/07/31 06:27:36;;;;;;;;;;;;;;;24.43;48.92;100659.63;4984430;28;6959;-77
2022/07/31 06:30:06;;;;;;;;;;;;;;;24.43;49.07;100664.84;4981863;28;7270;-76
2022/07/31 06:32:33;;;;;;;;;;;;;;;24.42;49.27;100669.22;4985559;28;7209;-76
2022/07/31 06:34:59;;;;;;;;;;;;;;;24.44;48.82;100672.72;5032155;28;7011;-77
2022/07/31 06:37:26;;;;;;;;;;;;;;;24.44;49.12;100677.97;5014922;28;6964;-77
2022/07/31 06:39:52;;;;;;;;;;;;;;;24.45;49.29;100676.19;5028552;28;7133;-77
2022/07/31 06:42:19;;;;;;;;;;;;;;;24.46;49.36;100677.94;5011502;28;7212;-77
2022/07/31 06:44:45;;;;;;;;;;;;;;;24.49;49.05;100681.41;4977581;28;7171;-77
2022/07/31 06:47:11;;;;;;;;;;;;;;;24.51;49.07;100679.66;5014514;28;6847;-77
2022/07/31 06:49:37;;;;;;;;;;;;;;;24.55;49.39;100681.38;4978771;28;7141;-77
2022/07/31 06:52:02;;;;;;;;;;;;;;;24.58;49.31;100679.63;5015375;28;7223;-77
2022/07/31 06:54:28;;;;;;;;;;;;;;;24.65;49.46;100676.94;4983216;28;7200;-77
2022/07/31 06:56:54;;;;;;;;;;;;;;;24.75;49.58;100676.88;5013145;28;7259;-77
2022/07/31 06:59:20;;;;;;;;;;;;;;;24.88;49.77;100673.34;5013127;28;6776;-77
2022/07/31 07:01:46;;;;;;;;;;;;;;;25.01;49.40;100671.47;5012491;28;6788;-77
2022/07/31 07:04:12;;;;;;;;;;;;;;;25.15;49.43;100668.75;5016363;28;6811;-77
2022/07/31 07:06:38;;;;;;;;;;;;;;;25.31;48.94;100666.00;4983767;28;6852;-78
2022/07/31 07:09:04;;;;;;;;;;;;;;;25.45;48.84;100660.63;4981905;28;7283;-76
2022/07/31 07:11:29;;;;;;;;;;;;;;;25.64;48.73;100663.97;4980201;28;6989;-77
2022/07/31 07:13:55;;;;;;;;;;;;;;;25.85;48.67;100660.25;5017099;28;6930;-77
2022/07/31 07:16:20;;;;;;;;;;;;;;;26.02;47.71;100659.19;5016127;28;6828;-77
2022/07/31 07:18:46;;;;;;;;;;;;;;;26.12;47.71;100655.53;5016238;28;6788;-77
2022/07/31 07:21:12;;;;;;;;;;;;;;;26.21;47.04;100659.81;5016254;28;7216;-77
2022/07/31 07:23:38;;;;;;;;;;;;;;;26.28;46.80;100650.13;5017844;28;7184;-77
2022/07/31 07:26:05;;;;;;;;;;;;;;;26.33;46.94;100650.94;4995413;28;7267;-77
2022/07/31 07:28:31;;;;;;;;;;;;;;;26.38;46.63;100654.38;5002219;28;7265;-77
2022/07/31 07:30:57;;;;;;;;;;;;;;;26.46;46.73;100641.13;4984314;28;6856;-77
2022/07/31 07:33:23;;;;;;;;;;;;;;;26.57;46.59;100638.34;5016854;28;7195;-77
2022/07/31 07:35:48;;;;;;;;;;;;;;;26.73;47.01;100639.81;4980404;28;7378;-77
2022/07/31 07:38:14;;;;;;;;;;;;;;;26.93;46.57;100629.94;5013253;28;6768;-77
2022/07/31 07:40:40;;;;;;;;;;;;;;;27.10;45.94;100632.25;5014276;28;7175;-77
2022/07/31 07:43:05;;;;;;;;;;;;;;;27.28;45.61;100629.31;5017642;28;6964;-77
2022/07/31 07:45:31;;;;;;;;;;;;;;;27.45;45.29;100630.78;5014813;28;7211;-77
2022/07/31 07:47:57;;;;;;;;;;;;;;;27.63;45.07;100626.09;4985865;28;6965;-77
2022/07/31 07:50:23;;;;;;;;;;;;;;;27.78;44.59;100636.28;5011976;28;6788;-77
2022/07/31 07:52:49;;;;;;;;;;;;;;;27.91;44.24;100630.78;5000763;28;8402;-77
2022/07/31 07:55:14;;;;;;;;;;;;;;;27.95;44.22;100628.03;5012761;28;6864;-77
2022/07/31 07:57:44;;;;;;;;;;;;;;;27.96;43.37;100642.09;5028747;28;7090;-77
2022/07/31 08:00:12;;;;;;;;;;;;;;;27.96;43.72;100637.72;5011902;28;7190;-77
2022/07/31 08:02:38;;;;;;;;;;;;;;;27.98;43.95;100635.03;4976826;28;7262;-77
2022/07/31 08:05:05;;;;;;;;;;;;;;;27.97;43.81;100638.56;5011551;28;7199;-77
2022/07/31 08:07:39;;;;;;;;;;;;;;;27.91;43.79;100639.56;4977076;28;6800;-76
2022/07/31 08:10:06;;;;;;;;;;;;;;;27.87;44.12;100635.25;5013102;28;6996;-77
2022/07/31 08:12:33;;;;;;;;;;;;;;;27.92;44.30;100636.03;5003421;28;7117;-76
2022/07/31 08:14:58;;;;;;;;;;;;;;;28.06;43.76;100638.38;5013205;28;7154;-77
2022/07/31 08:17:24;;;;;;;;;;;;;;;28.32;44.64;100636.09;5014882;28;6949;-77
2022/07/31 08:19:50;;;;;;;;;;;;;;;28.63;43.94;100630.09;4983812;28;7203;-76
2022/07/31 08:22:16;;;;;;;;;;;;;;;28.86;43.25;100624.31;5010152;28;7192;-77
2022/07/31 08:24:42;;;;;;;;;;;;;;;29.01;41.98;100628.31;5026655;28;7281;-77
2022/07/31 08:27:23;;;;;;;;;;;;;;;29.09;42.33;100636.91;5001431;28;9729;-76
2022/07/31 08:29:59;;;;;;;;;;;;;;;29.19;42.26;100632.28;5006322;28;6990;-77
2022/07/31 08:32:26;;;;;;;;;;;;;;;29.29;41.85;100622.31;5030801;28;7206;-77
2022/07/31 08:34:53;;;;;;;;;;;;;;;29.37;41.41;100627.41;5010522;28;6792;-76
2022/07/31 08:37:19;;;;;;;;;;;;;;;29.36;41.12;100628.34;5013416;28;6799;-77
2022/07/31 08:39:49;;;;;;;;;;;;;;;29.31;40.54;100636.38;4981062;28;7635;-77
2022/07/31 08:42:17;;;;;;;;;;;;;;;29.21;40.25;100629.56;5012519;28;7252;-77
2022/07/31 08:44:45;;;;;;;;;;;;;;;29.10;40.69;100625.44;4984645;28;6804;-77
2022/07/31 08:47:14;;;;;;;;;;;;;;;28.98;40.65;100625.78;4977623;28;7165;-77
2022/07/31 08:49:48;;;;;;;;;;;;;;;28.81;41.55;100626.16;4977239;28;6864;-77
2022/07/31 08:52:23;;;;;;;;;;;;;;;28.60;41.17;100632.81;4984085;28;7252;-77
2022/07/31 08:54:53;;;;;;;;;;;;;;;28.42;42.00;100634.97;5010327;28;7210;-77
2022/07/31 08:57:19;;;;;;;;;;;;;;;28.33;42.36;100633.44;4980436;28;6955;-77
2022/07/31 08:59:47;;;;;;;;;;;;;;;28.38;42.45;100636.81;4985986;28;6780;-77
2022/07/31 09:02:14;;;;;;;;;;;;;;;28.52;42.03;100638.28;5018199;28;7674;-77
2022/07/31 09:04:40;;;;;;;;;;;;;;;28.71;42.20;100630.78;5019475;28;7261;-77
2022/07/31 09:07:14;;;;;;;;;;;;;;;28.98;41.95;100624.94;4988309;28;7128;-77
2022/07/31 09:09:46;;;;;;;;;;;;;;;29.27;41.93;100618.03;5020522;28;6989;-77
2022/07/31 09:12:12;;;;;;;;;;;;;;;29.51;41.23;100620.00;5015295;28;6963;-77
2022/07/31 09:14:37;;;;;;;;;;;;;;;29.73;41.03;100616.75;5018195;28;7130;-77
2022/07/31 09:17:08;;;;;;;;;;;;;;;29.97;40.39;100616.06;5016808;28;6809;-76
2022/07/31 09:19:41;;;;;;;;;;;;;;;30.14;40.27;100615.63;4978578;28;6947;-77
2022/07/31 09:22:26;;;;;;;;;;;;;;;30.26;39.38;100606.44;5014478;28;6796;-77
2022/07/31 09:24:53;;;;;;;;;;;;;;;30.32;39.70;100609.72;5033924;28;7193;-76
2022/07/31 09:27:26;;;;;;;;;;;;;;;30.38;39.15;100616.63;5018086;28;7189;-76
2022/07/31 09:29:56;;;;;;;;;;;;;;;30.46;39.06;100619.88;5002990;28;7012;-77
2022/07/31 09:32:22;;;;;;;;;;;;;;;30.55;38.45;100620.50;4996716;28;7330;-77
2022/07/31 09:34:48;;;;;;;;;;;;;;;30.58;39.00;100615.13;5016218;28;7601;-76
2022/07/31 09:37:23;;;;;;;;;;;;;;;30.66;39.17;100606.97;5016273;28;6780;-77
2022/07/31 09:39:55;;;;;;;;;;;;;;;30.82;38.28;100613.50;4963465;28;7234;-77
2022/07/31 09:42:22;;;;;;;;;;;;;;;31.04;38.15;100605.66;5003654;28;7130;-76
2022/07/31 09:44:50;;;;;;;;;;;;;;;31.28;38.05;100600.47;5019106;28;7058;-77
2022/07/31 09:47:30;;;;;;;;;;;;;;;31.49;37.43;100603.25;4977511;28;7266;-77
2022/07/31 09:50:04;;;;;;;;;;;;;;;31.58;37.00;100594.97;4985349;28;6863;-77
2022/07/31 09:52:31;;;;;;;;;;;;;;;31.56;36.94;100601.22;5015068;28;6784;-76
2022/07/31 09:55:14;;;;;;;;;;;;;;;31.50;36.24;100594.38;5016196;28;7203;-76
2022/07/31 09:57:53;;;;;;;;;;;;;;;31.51;36.45;100589.97;4987092;28;7053;-76
2022/07/31 10:00:19;;;;;;;;;;;;;;;31.52;36.56;100597.84;4987858;28;7007;-76
2022/07/31 10:02:47;;;;;;;;;;;;;;;31.76;36.57;100595.19;5015644;28;8234;-76
2022/07/31 10:05:15;;;;;;;;;;;;;;;32.27;36.54;100595.91;5030122;28;7198;-77
2022/07/31 10:07:42;;;;;;;;;;;;;;;32.72;35.70;100589.75;4985263;28;6804;-77
2022/07/31 10:10:10;;;;;;;;;;;;;;;33.24;35.38;100586.66;5017553;28;6800;-77
2022/07/31 10:12:41;;;;;;;;;;;;;;;33.86;34.62;100583.84;4983174;28;7344;-77
2022/07/31 10:15:12;;;;;;;;;;;;;;;34.29;33.53;100574.78;5015108;28;6784;-76
2022/07/31 10:17:43;;;;;;;;;;;;;;;34.48;33.57;100585.38;5014664;28;6804;-77
2022/07/31 10:20:20;;;;;;;;;;;;;;;34.48;32.68;100577.38;4979258;28;7429;-77
2022/07/31 10:23:00;;;;;;;;;;;;;;;34.44;32.86;100574.03;4986078;28;7194;-76
2022/07/31 10:25:30;;;;;;;;;;;;;;;34.53;33.08;100578.06;4999439;28;8151;-77
2022/07/31 10:27:56;;;;;;;;;;;;;;;35.00;33.18;100573.03;5016919;28;6791;-77
2022/07/31 10:30:23;;;;;;;;;;;;;;;35.47;31.99;100568.81;5014768;28;7037;-77
2022/07/31 10:32:50;;;;;;;;;;;;;;;35.70;31.13;100570.25;5012187;28;6856;-77
2022/07/31 10:35:17;;;;;;;;;;;;;;;35.70;30.68;100580.03;5014195;28;6856;-77
2022/07/31 10:38:22;;;;;;;;;;;;;;;35.49;30.60;100579.34;4982798;28;7083;-77
2022/07/31 10:41:02;;;;;;;;;;;;;;;35.31;31.52;100574.13;4982666;28;8038;-77
2022/07/31 10:44:15;;;;;;;;;;;;;;;35.34;31.40;100565.06;4982197;28;7116;-77
2022/07/31 10:46:40;;;;;;;;;;;;;;;35.59;31.13;100573.50;4962064;28;7242;-77
2022/07/31 10:49:06;;;;;;;;;;;;;;;35.77;30.64;100560.09;4976843;28;6911;-77
2022/07/31 10:51:32;;;;;;;;;;;;;;;35.83;30.57;100570.41;5014488;28;7933;-77
2022/07/31 10:54:06;;;;;;;;;;;;;;;35.75;30.35;100566.44;5005267;28;7201;-76
2022/07/31 10:56:44;;;;;;;;;;;;;;;35.67;30.60;100564.22;5004870;28;7200;-76
2022/07/31 10:59:11;;;;;;;;;;;;;;;35.72;31.19;100562.13;4980940;28;7197;-76
2022/07/31 11:01:53;;;;;;;;;;;;;;;35.90;30.66;100554.94;4975103;28;6864;-76
2022/07/31 11:04:29;;;;;;;;;;;;;;;36.20;30.23;100558.63;4996109;28;7058;-76
2022/07/31 11:06:56;;;;;;;;;;;;;;;36.57;29.84;100559.16;5025673;28;7011;-76
2022/07/31 11:09:24;;;;;;;;;;;;;;;36.66;28.99;100553.28;4980591;28;7276;-78
2022/07/31 11:11:51;;;;;;;;;;;;;;;36.94;29.05;100548.94;5011766;28;6792;-78
2022/07/31 11:14:17;;;;;;;;;;;;;;;37.12;29.15;100543.44;4980749;28;6820;-78
2022/07/31 11:16:54;;;;;;;;;;;;;;;37.50;28.34;100537.50;5004357;28;6788;-77
2022/07/31 11:19:20;;;;;;;;;;;;;;;37.61;27.88;100535.97;4965854;28;7418;-77
2022/07/31 11:21:47;;;;;;;;;;;;;;;37.40;28.19;100536.38;5000591;28;7023;-77
2022/07/31 11:24:20;;;;;;;;;;;;;;;37.43;28.67;100546.00;4971778;28;6791;-77
2022/07/31 11:26:51;;;;;;;;;;;;;;;37.67;27.92;100535.59;5004646;28;6820;-77
2022/07/31 11:29:37;;;;;;;;;;;;;;;37.76;27.65;100537.69;5005912;28;6974;-76
2022/07/31 11:32:05;;;;;;;;;;;;;;;37.62;27.84;100545.72;5003021;28;8001;-76
2022/07/31 11:34:49;;;;;;;;;;;;;;;37.19;27.67;100538.56;4978012;28;7407;-76
2022/07/31 11:37:22;;;;;;;;;;;;;;;36.70;27.97;100543.28;5008766;28;6796;-76
2022/07/31 11:39:51;;;;;;;;;;;;;;;36.37;28.57;100530.97;4977679;28;6804;-76
2022/07/31 11:42:18;;;;;;;;;;;;;;;36.11;29.12;100531.53;5005676;28;7212;-76
2022/07/31 11:44:44;;;;;;;;;;;;;;;36.05;28.79;100531.88;5006755;28;7215;-77
2022/07/31 11:47:10;;;;;;;;;;;;;;;36.07;29.68;100526.47;5011945;28;7836;-76
2022/07/31 11:49:36;;;;;;;;;;;;;;;36.17;28.81;100529.47;5010567;28;7232;-76
2022/07/31 11:52:07;;;;;;;;;;;;;;;36.22;29.13;100522.06;5014512;28;7141;-76
2022/07/31 11:54:33;;;;;;;;;;;;;;;36.25;29.06;100521.88;4969764;28;6947;-76
2022/07/31 11:56:59;;;;;;;;;;;;;;;36.22;29.19;100528.25;5013902;28;7168;-76
2022/07/31 11:59:38;;;;;;;;;;;;;;;36.05;28.85;100521.19;5009208;28;7003;-76
2022/07/31 12:02:12;;;;;;;;;;;;;;;35.89;29.75;100521.22;4980475;28;6796;-77
2022/07/31 12:04:39;;;;;;;;;;;;;;;35.96;29.37;100529.72;5008970;28;6899;-76
2022/07/31 12:07:08;;;;;;;;;;;;;;;35.93;29.32;100527.25;5009055;28;7121;-75
2022/07/31 12:09:36;;;;;;;;;;;;;;;35.97;29.29;100523.44;4990001;28;7171;-75
2022/07/31 12:12:05;;;;;;;;;;;;;;;36.18;28.93;100526.72;4982272;28;6861;-76
2022/07/31 12:14:37;;;;;;;;;;;;;;;36.19;29.21;100528.44;4981641;28;7161;-76
2022/07/31 12:17:06;;;;;;;;;;;;;;;35.98;28.62;100525.16;4970667;28;6991;-76
2022/07/31 12:19:36;;;;;;;;;;;;;;;35.62;29.42;100527.16;4971826;28;6816;-76
2022/07/31 12:22:19;;;;;;;;;;;;;;;35.14;29.53;100527.06;5010189;28;6796;-77
2022/07/31 12:24:46;;;;;;;;;;;;;;;34.80;30.23;100518.19;4976249;28;6788;-77
2022/07/31 12:27:17;;;;;;;;;;;;;;;34.59;30.21;100519.19;5011915;28;7213;-76
2022/07/31 12:29:43;;;;;;;;;;;;;;;34.47;30.42;100518.00;5008049;28;7256;-76
2022/07/31 12:32:10;;;;;;;;;;;;;;;34.44;30.88;100504.00;4985569;28;7314;-76
2022/07/31 12:34:41;;;;;;;;;;;;;;;34.48;30.74;100509.09;4987408;28;6868;-76
2022/07/31 12:37:10;;;;;;;;;;;;;;;34.56;30.63;100505.19;4982663;28;7028;-76
2022/07/31 12:39:42;;;;;;;;;;;;;;;34.64;30.25;100508.31;4983136;28;7303;-76
2022/07/31 12:42:07;;;;;;;;;;;;;;;34.61;30.06;100503.16;5015906;28;7285;-76
2022/07/31 12:44:33;;;;;;;;;;;;;;;34.46;30.47;100504.78;4985675;28;6771;-76
2022/07/31 12:46:59;;;;;;;;;;;;;;;34.24;30.88;100497.91;4997674;28;7169;-76
2022/07/31 12:49:25;;;;;;;;;;;;;;;34.14;31.36;100497.50;4973784;28;7125;-76
2022/07/31 12:51:50;;;;;;;;;;;;;;;34.14;30.87;100500.16;4976566;28;6948;-76
2022/07/31 12:54:17;;;;;;;;;;;;;;;34.05;30.78;100497.94;4979558;28;7213;-76
2022/07/31 12:56:45;;;;;;;;;;;;;;;33.97;30.69;100502.75;4981336;28;7840;-76